ΕΜΥ, Εθνική Μετεωρολογική Υπηρεσία - Δελτία Καιρού, Προγνώσεις

ΑΕΡΟΝΑΥΤΙΛΙΑ

GREEK AIRPORTS CODES

LGEL 220120Z AUTO VRB02KT //// // ////// 20/12 Q1010 RE//=

EUROPEAN AIRPORTS CODES

LOWW 220120Z VRB02KT 9999 -RA FEW024 BKN050 14/13 Q1009 TEMPO28012KT=